sensor_id;sensor_type;location;lat;lon;timestamp;P1;durP1;ratioP1;P2;durP2;ratioP2
3333;SDS011;1679;50.392;8.008;2022-07-04T00:02:08;2.43;;;2.23;;
3333;SDS011;1679;50.392;8.008;2022-07-04T00:04:33;6.90;;;2.00;;
3333;SDS011;1679;50.392;8.008;2022-07-04T00:06:59;2.40;;;2.30;;
3333;SDS011;1679;50.392;8.008;2022-07-04T00:09:24;2.50;;;2.30;;
3333;SDS011;1679;50.392;8.008;2022-07-04T00:11:50;2.07;;;1.97;;
3333;SDS011;1679;50.392;8.008;2022-07-04T00:14:16;2.13;;;2.00;;
3333;SDS011;1679;50.392;8.008;2022-07-04T00:16:42;2.67;;;2.10;;
3333;SDS011;1679;50.392;8.008;2022-07-04T00:19:07;3.43;;;2.27;;
3333;SDS011;1679;50.392;8.008;2022-07-04T00:21:33;4.63;;;2.23;;
3333;SDS011;1679;50.392;8.008;2022-07-04T00:23:58;2.43;;;2.33;;
3333;SDS011;1679;50.392;8.008;2022-07-04T00:26:25;2.37;;;2.27;;
3333;SDS011;1679;50.392;8.008;2022-07-04T00:28:50;3.13;;;2.40;;
3333;SDS011;1679;50.392;8.008;2022-07-04T00:31:16;2.47;;;2.27;;
3333;SDS011;1679;50.392;8.008;2022-07-04T00:33:41;2.40;;;2.30;;
3333;SDS011;1679;50.392;8.008;2022-07-04T00:36:07;2.47;;;2.27;;
3333;SDS011;1679;50.392;8.008;2022-07-04T00:38:32;2.37;;;2.20;;
3333;SDS011;1679;50.392;8.008;2022-07-04T00:40:58;3.20;;;2.27;;
3333;SDS011;1679;50.392;8.008;2022-07-04T00:43:25;2.10;;;2.00;;
3333;SDS011;1679;50.392;8.008;2022-07-04T00:45:53;4.33;;;2.73;;
3333;SDS011;1679;50.392;8.008;2022-07-04T00:48:18;2.90;;;2.67;;
3333;SDS011;1679;50.392;8.008;2022-07-04T00:50:47;2.50;;;2.30;;
3333;SDS011;1679;50.392;8.008;2022-07-04T00:53:14;4.00;;;2.73;;
3333;SDS011;1679;50.392;8.008;2022-07-04T00:55:40;3.67;;;2.93;;
3333;SDS011;1679;50.392;8.008;2022-07-04T00:58:06;2.90;;;2.70;;
3333;SDS011;1679;50.392;8.008;2022-07-04T01:00:33;2.70;;;2.60;;
3333;SDS011;1679;50.392;8.008;2022-07-04T01:02:58;3.40;;;2.60;;
3333;SDS011;1679;50.392;8.008;2022-07-04T01:05:24;2.90;;;2.60;;
3333;SDS011;1679;50.392;8.008;2022-07-04T01:07:50;3.00;;;2.70;;
3333;SDS011;1679;50.392;8.008;2022-07-04T01:13:38;2.80;;;2.60;;
3333;SDS011;1679;50.392;8.008;2022-07-04T01:16:05;2.63;;;2.53;;
3333;SDS011;1679;50.392;8.008;2022-07-04T01:18:31;2.83;;;2.73;;
3333;SDS011;1679;50.392;8.008;2022-07-04T01:20:57;3.03;;;2.50;;
3333;SDS011;1679;50.392;8.008;2022-07-04T01:23:22;3.10;;;2.83;;
3333;SDS011;1679;50.392;8.008;2022-07-04T01:25:48;3.60;;;2.70;;
3333;SDS011;1679;50.392;8.008;2022-07-04T01:28:15;3.47;;;3.17;;
3333;SDS011;1679;50.392;8.008;2022-07-04T01:30:41;3.30;;;3.00;;
3333;SDS011;1679;50.392;8.008;2022-07-04T01:33:07;3.40;;;3.10;;
3333;SDS011;1679;50.392;8.008;2022-07-04T01:35:32;3.10;;;2.90;;
3333;SDS011;1679;50.392;8.008;2022-07-04T01:37:58;3.20;;;2.70;;
3333;SDS011;1679;50.392;8.008;2022-07-04T01:40:23;3.10;;;2.90;;
3333;SDS011;1679;50.392;8.008;2022-07-04T01:42:49;3.00;;;2.80;;
3333;SDS011;1679;50.392;8.008;2022-07-04T01:45:15;3.83;;;3.53;;
3333;SDS011;1679;50.392;8.008;2022-07-04T01:47:41;3.90;;;3.17;;
3333;SDS011;1679;50.392;8.008;2022-07-04T01:50:07;3.90;;;2.97;;
3333;SDS011;1679;50.392;8.008;2022-07-04T01:52:35;3.57;;;3.27;;
3333;SDS011;1679;50.392;8.008;2022-07-04T01:55:00;3.53;;;3.23;;
3333;SDS011;1679;50.392;8.008;2022-07-04T01:57:26;5.90;;;3.50;;
3333;SDS011;1679;50.392;8.008;2022-07-04T02:03:14;3.37;;;3.17;;
3333;SDS011;1679;50.392;8.008;2022-07-04T02:05:40;3.63;;;3.43;;
3333;SDS011;1679;50.392;8.008;2022-07-04T02:08:07;4.50;;;3.70;;
3333;SDS011;1679;50.392;8.008;2022-07-04T02:10:33;3.90;;;3.60;;
3333;SDS011;1679;50.392;8.008;2022-07-04T02:12:59;3.70;;;3.50;;
3333;SDS011;1679;50.392;8.008;2022-07-04T02:15:35;3.97;;;3.77;;
3333;SDS011;1679;50.392;8.008;2022-07-04T02:18:06;4.20;;;4.00;;
3333;SDS011;1679;50.392;8.008;2022-07-04T02:20:35;3.63;;;3.33;;
3333;SDS011;1679;50.392;8.008;2022-07-04T02:23:03;7.70;;;3.73;;
3333;SDS011;1679;50.392;8.008;2022-07-04T02:25:29;4.20;;;3.90;;
3333;SDS011;1679;50.392;8.008;2022-07-04T02:27:55;4.17;;;3.43;;
3333;SDS011;1679;50.392;8.008;2022-07-04T02:30:21;4.40;;;3.87;;
3333;SDS011;1679;50.392;8.008;2022-07-04T02:32:47;4.30;;;3.90;;
3333;SDS011;1679;50.392;8.008;2022-07-04T02:35:13;3.70;;;3.40;;
3333;SDS011;1679;50.392;8.008;2022-07-04T02:37:39;3.97;;;3.77;;
3333;SDS011;1679;50.392;8.008;2022-07-04T02:40:05;4.23;;;3.50;;
3333;SDS011;1679;50.392;8.008;2022-07-04T02:42:31;4.00;;;3.80;;
3333;SDS011;1679;50.392;8.008;2022-07-04T02:44:58;4.10;;;3.80;;
3333;SDS011;1679;50.392;8.008;2022-07-04T02:47:23;4.33;;;4.00;;
3333;SDS011;1679;50.392;8.008;2022-07-04T02:49:49;4.40;;;3.83;;
3333;SDS011;1679;50.392;8.008;2022-07-04T02:52:15;4.07;;;3.80;;
3333;SDS011;1679;50.392;8.008;2022-07-04T02:54:40;5.67;;;4.03;;
3333;SDS011;1679;50.392;8.008;2022-07-04T02:57:07;4.00;;;3.67;;
3333;SDS011;1679;50.392;8.008;2022-07-04T02:59:32;6.90;;;4.27;;
3333;SDS011;1679;50.392;8.008;2022-07-04T03:01:58;4.20;;;3.90;;
3333;SDS011;1679;50.392;8.008;2022-07-04T03:04:23;5.50;;;3.90;;
3333;SDS011;1679;50.392;8.008;2022-07-04T03:06:49;4.63;;;4.23;;
3333;SDS011;1679;50.392;8.008;2022-07-04T03:09:14;4.27;;;3.90;;
3333;SDS011;1679;50.392;8.008;2022-07-04T03:11:41;4.50;;;4.30;;
3333;SDS011;1679;50.392;8.008;2022-07-04T03:14:08;3.53;;;3.33;;
3333;SDS011;1679;50.392;8.008;2022-07-04T03:16:34;5.43;;;3.90;;
3333;SDS011;1679;50.392;8.008;2022-07-04T03:18:59;4.20;;;3.90;;
3333;SDS011;1679;50.392;8.008;2022-07-04T03:21:25;4.20;;;4.00;;
3333;SDS011;1679;50.392;8.008;2022-07-04T03:23:50;4.07;;;3.80;;
3333;SDS011;1679;50.392;8.008;2022-07-04T03:26:25;4.77;;;4.43;;
3333;SDS011;1679;50.392;8.008;2022-07-04T03:28:52;4.73;;;4.37;;
3333;SDS011;1679;50.392;8.008;2022-07-04T03:31:18;4.30;;;4.00;;
3333;SDS011;1679;50.392;8.008;2022-07-04T03:33:44;4.47;;;4.07;;
3333;SDS011;1679;50.392;8.008;2022-07-04T03:36:10;4.90;;;4.50;;
3333;SDS011;1679;50.392;8.008;2022-07-04T03:38:35;4.40;;;4.10;;
3333;SDS011;1679;50.392;8.008;2022-07-04T03:41:01;3.90;;;3.70;;
3333;SDS011;1679;50.392;8.008;2022-07-04T03:43:26;4.20;;;3.80;;
3333;SDS011;1679;50.392;8.008;2022-07-04T03:45:52;4.83;;;3.93;;
3333;SDS011;1679;50.392;8.008;2022-07-04T03:48:17;3.80;;;3.50;;
3333;SDS011;1679;50.392;8.008;2022-07-04T03:50:43;4.73;;;4.33;;
3333;SDS011;1679;50.392;8.008;2022-07-04T03:53:08;4.53;;;3.57;;
3333;SDS011;1679;50.392;8.008;2022-07-04T03:55:34;4.00;;;3.80;;
3333;SDS011;1679;50.392;8.008;2022-07-04T03:57:59;3.80;;;3.60;;
3333;SDS011;1679;50.392;8.008;2022-07-04T04:00:26;3.73;;;3.43;;
3333;SDS011;1679;50.392;8.008;2022-07-04T04:02:51;4.27;;;3.97;;
3333;SDS011;1679;50.392;8.008;2022-07-04T04:05:17;4.27;;;3.90;;
3333;SDS011;1679;50.392;8.008;2022-07-04T04:07:55;4.20;;;4.00;;
3333;SDS011;1679;50.392;8.008;2022-07-04T04:10:25;3.60;;;3.40;;
3333;SDS011;1679;50.392;8.008;2022-07-04T04:12:51;6.23;;;3.90;;
3333;SDS011;1679;50.392;8.008;2022-07-04T04:15:17;4.40;;;4.00;;
3333;SDS011;1679;50.392;8.008;2022-07-04T04:17:43;3.80;;;3.60;;
3333;SDS011;1679;50.392;8.008;2022-07-04T04:20:09;5.20;;;4.20;;
3333;SDS011;1679;50.392;8.008;2022-07-04T04:22:34;5.43;;;3.70;;
3333;SDS011;1679;50.392;8.008;2022-07-04T04:25:00;3.87;;;3.57;;
3333;SDS011;1679;50.392;8.008;2022-07-04T04:27:26;6.77;;;4.00;;
3333;SDS011;1679;50.392;8.008;2022-07-04T04:29:51;4.13;;;3.83;;
3333;SDS011;1679;50.392;8.008;2022-07-04T04:32:17;6.73;;;4.10;;
3333;SDS011;1679;50.392;8.008;2022-07-04T04:34:43;4.00;;;3.80;;
3333;SDS011;1679;50.392;8.008;2022-07-04T04:37:08;4.60;;;3.87;;
3333;SDS011;1679;50.392;8.008;2022-07-04T04:39:34;4.50;;;4.10;;
3333;SDS011;1679;50.392;8.008;2022-07-04T04:41:59;4.50;;;4.13;;
3333;SDS011;1679;50.392;8.008;2022-07-04T04:44:25;4.70;;;3.60;;
3333;SDS011;1679;50.392;8.008;2022-07-04T04:46:50;8.60;;;4.13;;
3333;SDS011;1679;50.392;8.008;2022-07-04T04:49:16;4.40;;;4.10;;
3333;SDS011;1679;50.392;8.008;2022-07-04T04:51:42;3.70;;;3.40;;
3333;SDS011;1679;50.392;8.008;2022-07-04T04:54:08;4.13;;;3.27;;
3333;SDS011;1679;50.392;8.008;2022-07-04T04:56:33;3.67;;;3.37;;
3333;SDS011;1679;50.392;8.008;2022-07-04T04:58:59;3.90;;;3.70;;
3333;SDS011;1679;50.392;8.008;2022-07-04T05:01:24;3.97;;;3.27;;
3333;SDS011;1679;50.392;8.008;2022-07-04T05:03:50;3.33;;;3.10;;
3333;SDS011;1679;50.392;8.008;2022-07-04T05:06:16;3.43;;;3.13;;
3333;SDS011;1679;50.392;8.008;2022-07-04T05:08:41;4.60;;;4.10;;
3333;SDS011;1679;50.392;8.008;2022-07-04T05:11:07;4.20;;;3.53;;
3333;SDS011;1679;50.392;8.008;2022-07-04T05:13:32;3.70;;;3.40;;
3333;SDS011;1679;50.392;8.008;2022-07-04T05:15:58;4.40;;;4.00;;
3333;SDS011;1679;50.392;8.008;2022-07-04T05:18:24;6.27;;;3.73;;
3333;SDS011;1679;50.392;8.008;2022-07-04T05:20:49;4.83;;;4.50;;
3333;SDS011;1679;50.392;8.008;2022-07-04T05:23:15;5.00;;;4.70;;
3333;SDS011;1679;50.392;8.008;2022-07-04T05:25:41;4.83;;;4.50;;
3333;SDS011;1679;50.392;8.008;2022-07-04T05:28:06;4.87;;;4.57;;
3333;SDS011;1679;50.392;8.008;2022-07-04T05:30:32;4.40;;;3.90;;
3333;SDS011;1679;50.392;8.008;2022-07-04T05:32:58;3.83;;;3.33;;
3333;SDS011;1679;50.392;8.008;2022-07-04T05:35:25;4.13;;;3.77;;
3333;SDS011;1679;50.392;8.008;2022-07-04T05:37:52;3.77;;;3.53;;
3333;SDS011;1679;50.392;8.008;2022-07-04T05:40:18;3.90;;;3.50;;
3333;SDS011;1679;50.392;8.008;2022-07-04T05:42:46;3.43;;;3.20;;
3333;SDS011;1679;50.392;8.008;2022-07-04T05:45:11;3.43;;;3.17;;
3333;SDS011;1679;50.392;8.008;2022-07-04T05:47:37;3.30;;;3.00;;
3333;SDS011;1679;50.392;8.008;2022-07-04T05:50:02;3.37;;;3.17;;
3333;SDS011;1679;50.392;8.008;2022-07-04T05:52:28;3.13;;;2.50;;
3333;SDS011;1679;50.392;8.008;2022-07-04T05:54:54;2.97;;;2.77;;
3333;SDS011;1679;50.392;8.008;2022-07-04T05:57:19;2.97;;;2.77;;
3333;SDS011;1679;50.392;8.008;2022-07-04T05:59:45;3.00;;;2.77;;
3333;SDS011;1679;50.392;8.008;2022-07-04T06:02:10;3.13;;;2.93;;
3333;SDS011;1679;50.392;8.008;2022-07-04T06:04:36;2.93;;;2.27;;
3333;SDS011;1679;50.392;8.008;2022-07-04T06:07:02;3.73;;;3.17;;
3333;SDS011;1679;50.392;8.008;2022-07-04T06:09:27;3.80;;;2.70;;
3333;SDS011;1679;50.392;8.008;2022-07-04T06:11:53;2.77;;;2.57;;
3333;SDS011;1679;50.392;8.008;2022-07-04T06:14:18;2.40;;;2.20;;
3333;SDS011;1679;50.392;8.008;2022-07-04T06:16:44;3.00;;;2.53;;
3333;SDS011;1679;50.392;8.008;2022-07-04T06:19:09;2.87;;;2.03;;
3333;SDS011;1679;50.392;8.008;2022-07-04T06:21:35;2.53;;;2.33;;
3333;SDS011;1679;50.392;8.008;2022-07-04T06:24:00;2.03;;;1.90;;
3333;SDS011;1679;50.392;8.008;2022-07-04T06:26:28;3.03;;;2.47;;
3333;SDS011;1679;50.392;8.008;2022-07-04T06:28:53;2.70;;;2.00;;
3333;SDS011;1679;50.392;8.008;2022-07-04T06:31:19;2.73;;;2.43;;
3333;SDS011;1679;50.392;8.008;2022-07-04T06:33:44;2.00;;;1.80;;
3333;SDS011;1679;50.392;8.008;2022-07-04T06:36:29;3.13;;;2.20;;
3333;SDS011;1679;50.392;8.008;2022-07-04T06:38:55;3.00;;;1.97;;
3333;SDS011;1679;50.392;8.008;2022-07-04T06:41:20;3.17;;;2.97;;
3333;SDS011;1679;50.392;8.008;2022-07-04T06:43:46;4.10;;;2.20;;
3333;SDS011;1679;50.392;8.008;2022-07-04T06:46:11;2.53;;;2.20;;
3333;SDS011;1679;50.392;8.008;2022-07-04T06:48:37;3.60;;;2.00;;
3333;SDS011;1679;50.392;8.008;2022-07-04T06:51:03;3.10;;;2.00;;
3333;SDS011;1679;50.392;8.008;2022-07-04T06:53:28;2.67;;;1.83;;
3333;SDS011;1679;50.392;8.008;2022-07-04T06:55:54;2.00;;;1.77;;
3333;SDS011;1679;50.392;8.008;2022-07-04T06:58:19;2.83;;;1.60;;
3333;SDS011;1679;50.392;8.008;2022-07-04T07:00:45;2.10;;;1.40;;
3333;SDS011;1679;50.392;8.008;2022-07-04T07:03:11;1.23;;;1.13;;
3333;SDS011;1679;50.392;8.008;2022-07-04T07:05:36;1.57;;;1.37;;
3333;SDS011;1679;50.392;8.008;2022-07-04T07:08:03;2.07;;;1.30;;
3333;SDS011;1679;50.392;8.008;2022-07-04T07:10:29;2.90;;;1.87;;
3333;SDS011;1679;50.392;8.008;2022-07-04T07:12:57;1.60;;;1.50;;
3333;SDS011;1679;50.392;8.008;2022-07-04T07:15:23;2.67;;;1.00;;
3333;SDS011;1679;50.392;8.008;2022-07-04T07:17:48;1.73;;;1.17;;
3333;SDS011;1679;50.392;8.008;2022-07-04T07:20:14;1.27;;;1.17;;
3333;SDS011;1679;50.392;8.008;2022-07-04T07:22:40;2.90;;;1.30;;
3333;SDS011;1679;50.392;8.008;2022-07-04T07:25:06;1.77;;;1.50;;
3333;SDS011;1679;50.392;8.008;2022-07-04T07:27:32;1.93;;;1.20;;
3333;SDS011;1679;50.392;8.008;2022-07-04T07:29:58;3.20;;;1.27;;
3333;SDS011;1679;50.392;8.008;2022-07-04T07:32:23;2.40;;;1.30;;
3333;SDS011;1679;50.392;8.008;2022-07-04T07:34:49;1.80;;;0.90;;
3333;SDS011;1679;50.392;8.008;2022-07-04T07:37:15;1.73;;;0.73;;
3333;SDS011;1679;50.392;8.008;2022-07-04T07:39:42;1.70;;;1.40;;
3333;SDS011;1679;50.392;8.008;2022-07-04T07:42:08;1.20;;;0.70;;
3333;SDS011;1679;50.392;8.008;2022-07-04T07:44:34;1.23;;;0.93;;
3333;SDS011;1679;50.392;8.008;2022-07-04T07:46:59;1.17;;;1.07;;
3333;SDS011;1679;50.392;8.008;2022-07-04T07:49:25;1.97;;;0.80;;
3333;SDS011;1679;50.392;8.008;2022-07-04T07:51:50;1.87;;;0.90;;
3333;SDS011;1679;50.392;8.008;2022-07-04T07:54:16;0.87;;;0.70;;
3333;SDS011;1679;50.392;8.008;2022-07-04T07:56:42;1.10;;;0.60;;
3333;SDS011;1679;50.392;8.008;2022-07-04T07:59:08;1.20;;;0.70;;
3333;SDS011;1679;50.392;8.008;2022-07-04T08:01:33;0.90;;;0.40;;
3333;SDS011;1679;50.392;8.008;2022-07-04T08:03:59;0.93;;;0.80;;
3333;SDS011;1679;50.392;8.008;2022-07-04T08:06:43;1.20;;;0.90;;
3333;SDS011;1679;50.392;8.008;2022-07-04T08:09:08;0.70;;;0.40;;
3333;SDS011;1679;50.392;8.008;2022-07-04T08:11:34;1.07;;;0.50;;
3333;SDS011;1679;50.392;8.008;2022-07-04T08:13:59;0.90;;;0.50;;
3333;SDS011;1679;50.392;8.008;2022-07-04T08:16:25;1.27;;;0.50;;
3333;SDS011;1679;50.392;8.008;2022-07-04T08:18:51;1.10;;;0.70;;
3333;SDS011;1679;50.392;8.008;2022-07-04T08:21:16;2.00;;;0.60;;
3333;SDS011;1679;50.392;8.008;2022-07-04T08:23:42;5.47;;;0.70;;
3333;SDS011;1679;50.392;8.008;2022-07-04T08:26:07;1.00;;;0.60;;
3333;SDS011;1679;50.392;8.008;2022-07-04T08:28:33;0.80;;;0.50;;
3333;SDS011;1679;50.392;8.008;2022-07-04T08:30:59;1.00;;;0.60;;
3333;SDS011;1679;50.392;8.008;2022-07-04T08:33:24;1.00;;;0.50;;
3333;SDS011;1679;50.392;8.008;2022-07-04T08:35:50;1.20;;;0.50;;
3333;SDS011;1679;50.392;8.008;2022-07-04T08:38:16;1.83;;;0.80;;
3333;SDS011;1679;50.392;8.008;2022-07-04T08:40:42;3.20;;;1.00;;
3333;SDS011;1679;50.392;8.008;2022-07-04T08:43:08;1.17;;;0.60;;
3333;SDS011;1679;50.392;8.008;2022-07-04T08:45:38;0.90;;;0.60;;
3333;SDS011;1679;50.392;8.008;2022-07-04T08:48:06;2.63;;;0.50;;
3333;SDS011;1679;50.392;8.008;2022-07-04T08:50:34;0.90;;;0.57;;
3333;SDS011;1679;50.392;8.008;2022-07-04T08:53:09;1.10;;;0.50;;
3333;SDS011;1679;50.392;8.008;2022-07-04T08:55:36;1.37;;;0.47;;
3333;SDS011;1679;50.392;8.008;2022-07-04T08:58:22;3.20;;;1.03;;
3333;SDS011;1679;50.392;8.008;2022-07-04T09:00:54;1.37;;;0.70;;
3333;SDS011;1679;50.392;8.008;2022-07-04T09:03:27;1.13;;;0.47;;
3333;SDS011;1679;50.392;8.008;2022-07-04T09:05:54;1.00;;;0.50;;
3333;SDS011;1679;50.392;8.008;2022-07-04T09:08:20;2.50;;;0.70;;
3333;SDS011;1679;50.392;8.008;2022-07-04T09:10:47;0.93;;;0.53;;
3333;SDS011;1679;50.392;8.008;2022-07-04T09:13:13;1.30;;;0.50;;
3333;SDS011;1679;50.392;8.008;2022-07-04T09:15:40;1.07;;;0.60;;
3333;SDS011;1679;50.392;8.008;2022-07-04T09:18:18;0.90;;;0.60;;
3333;SDS011;1679;50.392;8.008;2022-07-04T09:20:45;3.50;;;0.97;;
3333;SDS011;1679;50.392;8.008;2022-07-04T09:23:21;0.80;;;0.60;;
3333;SDS011;1679;50.392;8.008;2022-07-04T09:25:48;1.20;;;0.60;;
3333;SDS011;1679;50.392;8.008;2022-07-04T09:28:30;1.60;;;0.70;;
3333;SDS011;1679;50.392;8.008;2022-07-04T09:30:55;0.80;;;0.50;;
3333;SDS011;1679;50.392;8.008;2022-07-04T09:33:21;4.83;;;1.27;;
3333;SDS011;1679;50.392;8.008;2022-07-04T09:35:48;1.00;;;0.70;;
3333;SDS011;1679;50.392;8.008;2022-07-04T09:38:16;2.10;;;0.60;;
3333;SDS011;1679;50.392;8.008;2022-07-04T09:40:48;0.93;;;0.70;;
3333;SDS011;1679;50.392;8.008;2022-07-04T09:43:36;1.30;;;0.70;;
3333;SDS011;1679;50.392;8.008;2022-07-04T09:46:02;0.90;;;0.50;;
3333;SDS011;1679;50.392;8.008;2022-07-04T09:51:15;2.03;;;0.70;;
3333;SDS011;1679;50.392;8.008;2022-07-04T09:56:54;0.70;;;0.40;;
3333;SDS011;1679;50.392;8.008;2022-07-04T09:59:21;0.80;;;0.60;;
3333;SDS011;1679;50.392;8.008;2022-07-04T10:01:47;1.67;;;0.70;;
3333;SDS011;1679;50.392;8.008;2022-07-04T10:04:13;1.97;;;0.60;;
3333;SDS011;1679;50.392;8.008;2022-07-04T10:06:40;1.70;;;0.60;;
3333;SDS011;1679;50.392;8.008;2022-07-04T10:09:10;3.93;;;0.70;;
3333;SDS011;1679;50.392;8.008;2022-07-04T10:11:39;1.67;;;0.80;;
3333;SDS011;1679;50.392;8.008;2022-07-04T10:14:06;0.90;;;0.70;;
3333;SDS011;1679;50.392;8.008;2022-07-04T10:16:34;2.53;;;0.83;;
3333;SDS011;1679;50.392;8.008;2022-07-04T10:19:00;2.67;;;0.77;;
3333;SDS011;1679;50.392;8.008;2022-07-04T10:21:27;1.10;;;0.60;;
3333;SDS011;1679;50.392;8.008;2022-07-04T10:23:53;2.60;;;0.87;;
3333;SDS011;1679;50.392;8.008;2022-07-04T10:26:19;0.90;;;0.70;;
3333;SDS011;1679;50.392;8.008;2022-07-04T10:28:46;2.40;;;0.77;;
3333;SDS011;1679;50.392;8.008;2022-07-04T10:31:13;1.40;;;0.60;;
3333;SDS011;1679;50.392;8.008;2022-07-04T10:33:39;0.90;;;0.40;;
3333;SDS011;1679;50.392;8.008;2022-07-04T10:36:15;1.20;;;0.50;;
3333;SDS011;1679;50.392;8.008;2022-07-04T10:38:52;2.33;;;0.60;;
3333;SDS011;1679;50.392;8.008;2022-07-04T10:41:20;1.70;;;0.73;;
3333;SDS011;1679;50.392;8.008;2022-07-04T10:48:48;2.97;;;0.70;;
3333;SDS011;1679;50.392;8.008;2022-07-04T10:51:14;1.80;;;0.93;;
3333;SDS011;1679;50.392;8.008;2022-07-04T10:54:00;0.90;;;0.60;;
3333;SDS011;1679;50.392;8.008;2022-07-04T10:58:56;2.20;;;0.87;;
3333;SDS011;1679;50.392;8.008;2022-07-04T11:01:26;1.43;;;0.70;;
3333;SDS011;1679;50.392;8.008;2022-07-04T11:03:53;1.20;;;0.70;;
3333;SDS011;1679;50.392;8.008;2022-07-04T11:09:23;1.50;;;0.80;;
3333;SDS011;1679;50.392;8.008;2022-07-04T11:11:56;1.33;;;1.00;;
3333;SDS011;1679;50.392;8.008;2022-07-04T11:17:12;1.57;;;0.50;;
3333;SDS011;1679;50.392;8.008;2022-07-04T11:19:38;2.00;;;0.60;;
3333;SDS011;1679;50.392;8.008;2022-07-04T11:22:04;2.50;;;0.77;;
3333;SDS011;1679;50.392;8.008;2022-07-04T11:24:31;1.03;;;0.50;;
3333;SDS011;1679;50.392;8.008;2022-07-04T11:26:57;1.17;;;0.50;;
3333;SDS011;1679;50.392;8.008;2022-07-04T11:29:24;1.63;;;0.70;;
3333;SDS011;1679;50.392;8.008;2022-07-04T11:31:50;1.20;;;0.77;;
3333;SDS011;1679;50.392;8.008;2022-07-04T11:34:16;0.80;;;0.60;;
3333;SDS011;1679;50.392;8.008;2022-07-04T11:36:43;0.90;;;0.60;;
3333;SDS011;1679;50.392;8.008;2022-07-04T11:39:12;1.00;;;0.67;;
3333;SDS011;1679;50.392;8.008;2022-07-04T11:41:43;0.80;;;0.60;;
3333;SDS011;1679;50.392;8.008;2022-07-04T11:44:47;0.80;;;0.70;;
3333;SDS011;1679;50.392;8.008;2022-07-04T11:47:32;1.17;;;0.70;;
3333;SDS011;1679;50.392;8.008;2022-07-04T11:50:06;1.17;;;0.70;;
3333;SDS011;1679;50.392;8.008;2022-07-04T11:55:05;1.00;;;0.60;;
3333;SDS011;1679;50.392;8.008;2022-07-04T11:57:33;1.43;;;0.60;;
3333;SDS011;1679;50.392;8.008;2022-07-04T12:00:07;1.10;;;0.70;;
3333;SDS011;1679;50.392;8.008;2022-07-04T12:02:35;1.53;;;0.90;;
3333;SDS011;1679;50.392;8.008;2022-07-04T12:05:02;1.60;;;0.80;;
3333;SDS011;1679;50.392;8.008;2022-07-04T12:07:31;1.47;;;0.80;;
3333;SDS011;1679;50.392;8.008;2022-07-04T12:10:06;1.07;;;0.87;;
3333;SDS011;1679;50.392;8.008;2022-07-04T12:12:56;1.30;;;0.90;;
3333;SDS011;1679;50.392;8.008;2022-07-04T12:15:24;1.10;;;0.63;;
3333;SDS011;1679;50.392;8.008;2022-07-04T12:18:00;0.80;;;0.60;;
3333;SDS011;1679;50.392;8.008;2022-07-04T12:20:27;1.73;;;0.67;;
3333;SDS011;1679;50.392;8.008;2022-07-04T12:22:53;0.90;;;0.70;;
3333;SDS011;1679;50.392;8.008;2022-07-04T12:28:03;1.77;;;0.60;;
3333;SDS011;1679;50.392;8.008;2022-07-04T12:30:35;0.90;;;0.67;;
3333;SDS011;1679;50.392;8.008;2022-07-04T12:33:08;3.73;;;1.00;;
3333;SDS011;1679;50.392;8.008;2022-07-04T12:35:38;1.03;;;0.70;;
3333;SDS011;1679;50.392;8.008;2022-07-04T12:40:31;3.53;;;0.80;;
3333;SDS011;1679;50.392;8.008;2022-07-04T12:42:58;0.93;;;0.80;;
3333;SDS011;1679;50.392;8.008;2022-07-04T12:45:25;2.20;;;0.70;;
3333;SDS011;1679;50.392;8.008;2022-07-04T12:47:51;1.53;;;0.60;;
3333;SDS011;1679;50.392;8.008;2022-07-04T12:50:27;2.00;;;0.70;;
3333;SDS011;1679;50.392;8.008;2022-07-04T12:52:53;1.00;;;0.70;;
3333;SDS011;1679;50.392;8.008;2022-07-04T12:55:19;0.80;;;0.70;;
3333;SDS011;1679;50.392;8.008;2022-07-04T12:57:44;0.90;;;0.67;;
3333;SDS011;1679;50.392;8.008;2022-07-04T13:00:10;0.83;;;0.60;;
3333;SDS011;1679;50.392;8.008;2022-07-04T13:02:37;1.27;;;0.57;;
3333;SDS011;1679;50.392;8.008;2022-07-04T13:05:03;0.83;;;0.53;;
3333;SDS011;1679;50.392;8.008;2022-07-04T13:07:28;2.30;;;0.67;;
3333;SDS011;1679;50.392;8.008;2022-07-04T13:09:55;1.67;;;1.03;;
3333;SDS011;1679;50.392;8.008;2022-07-04T13:12:21;1.00;;;0.80;;
3333;SDS011;1679;50.392;8.008;2022-07-04T13:14:49;1.83;;;0.70;;
3333;SDS011;1679;50.392;8.008;2022-07-04T13:17:15;0.90;;;0.70;;
3333;SDS011;1679;50.392;8.008;2022-07-04T13:19:41;1.87;;;0.80;;
3333;SDS011;1679;50.392;8.008;2022-07-04T13:22:06;1.10;;;0.80;;
3333;SDS011;1679;50.392;8.008;2022-07-04T13:24:32;2.17;;;0.53;;
3333;SDS011;1679;50.392;8.008;2022-07-04T13:26:58;1.93;;;0.60;;
3333;SDS011;1679;50.392;8.008;2022-07-04T13:29:23;1.20;;;0.60;;
3333;SDS011;1679;50.392;8.008;2022-07-04T13:31:49;2.60;;;0.80;;
3333;SDS011;1679;50.392;8.008;2022-07-04T13:34:15;0.80;;;0.60;;
3333;SDS011;1679;50.392;8.008;2022-07-04T13:36:41;1.70;;;0.73;;
3333;SDS011;1679;50.392;8.008;2022-07-04T13:39:06;1.40;;;0.80;;
3333;SDS011;1679;50.392;8.008;2022-07-04T13:41:32;2.53;;;0.90;;
3333;SDS011;1679;50.392;8.008;2022-07-04T13:44:02;4.13;;;0.90;;
3333;SDS011;1679;50.392;8.008;2022-07-04T13:46:28;1.00;;;0.90;;
3333;SDS011;1679;50.392;8.008;2022-07-04T13:48:54;1.10;;;0.90;;
3333;SDS011;1679;50.392;8.008;2022-07-04T13:51:20;1.13;;;0.70;;
3333;SDS011;1679;50.392;8.008;2022-07-04T13:53:45;0.90;;;0.60;;
3333;SDS011;1679;50.392;8.008;2022-07-04T13:56:11;0.90;;;0.50;;
3333;SDS011;1679;50.392;8.008;2022-07-04T13:58:40;1.87;;;0.70;;
3333;SDS011;1679;50.392;8.008;2022-07-04T14:01:06;1.13;;;0.77;;
3333;SDS011;1679;50.392;8.008;2022-07-04T14:03:32;2.17;;;0.90;;
3333;SDS011;1679;50.392;8.008;2022-07-04T14:05:57;2.60;;;0.90;;
3333;SDS011;1679;50.392;8.008;2022-07-04T14:08:23;1.13;;;0.90;;
3333;SDS011;1679;50.392;8.008;2022-07-04T14:10:48;2.47;;;1.00;;
3333;SDS011;1679;50.392;8.008;2022-07-04T14:13:14;2.07;;;0.80;;
3333;SDS011;1679;50.392;8.008;2022-07-04T14:15:40;3.90;;;0.90;;
3333;SDS011;1679;50.392;8.008;2022-07-04T14:18:05;1.10;;;1.00;;
3333;SDS011;1679;50.392;8.008;2022-07-04T14:20:36;1.63;;;1.00;;
3333;SDS011;1679;50.392;8.008;2022-07-04T14:23:01;1.40;;;1.00;;
3333;SDS011;1679;50.392;8.008;2022-07-04T14:25:27;1.00;;;0.83;;
3333;SDS011;1679;50.392;8.008;2022-07-04T14:27:52;1.73;;;0.80;;
3333;SDS011;1679;50.392;8.008;2022-07-04T14:30:18;1.20;;;0.73;;
3333;SDS011;1679;50.392;8.008;2022-07-04T14:32:43;1.37;;;0.70;;
3333;SDS011;1679;50.392;8.008;2022-07-04T14:35:09;1.00;;;0.80;;
3333;SDS011;1679;50.392;8.008;2022-07-04T14:37:35;1.30;;;1.20;;
3333;SDS011;1679;50.392;8.008;2022-07-04T14:40:00;1.03;;;0.87;;
3333;SDS011;1679;50.392;8.008;2022-07-04T14:42:26;1.00;;;0.70;;
3333;SDS011;1679;50.392;8.008;2022-07-04T14:44:51;1.10;;;0.80;;
3333;SDS011;1679;50.392;8.008;2022-07-04T14:47:17;1.70;;;0.90;;
3333;SDS011;1679;50.392;8.008;2022-07-04T14:49:43;2.33;;;0.83;;
3333;SDS011;1679;50.392;8.008;2022-07-04T14:52:10;1.10;;;0.80;;
3333;SDS011;1679;50.392;8.008;2022-07-04T14:54:35;1.57;;;1.00;;
3333;SDS011;1679;50.392;8.008;2022-07-04T14:57:01;7.73;;;1.10;;
3333;SDS011;1679;50.392;8.008;2022-07-04T14:59:26;2.50;;;1.00;;
3333;SDS011;1679;50.392;8.008;2022-07-04T15:01:52;1.60;;;0.70;;
3333;SDS011;1679;50.392;8.008;2022-07-04T15:04:18;2.80;;;1.00;;
3333;SDS011;1679;50.392;8.008;2022-07-04T15:06:44;0.90;;;0.80;;
3333;SDS011;1679;50.392;8.008;2022-07-04T15:09:09;1.10;;;0.83;;
3333;SDS011;1679;50.392;8.008;2022-07-04T15:11:35;1.30;;;0.90;;
3333;SDS011;1679;50.392;8.008;2022-07-04T15:14:01;2.30;;;0.87;;
3333;SDS011;1679;50.392;8.008;2022-07-04T15:16:26;1.10;;;0.70;;
3333;SDS011;1679;50.392;8.008;2022-07-04T15:18:52;1.30;;;0.70;;
3333;SDS011;1679;50.392;8.008;2022-07-04T15:21:18;1.00;;;0.90;;
3333;SDS011;1679;50.392;8.008;2022-07-04T15:24:02;3.20;;;1.13;;
3333;SDS011;1679;50.392;8.008;2022-07-04T15:26:43;1.67;;;0.97;;
3333;SDS011;1679;50.392;8.008;2022-07-04T15:29:11;2.20;;;1.20;;
3333;SDS011;1679;50.392;8.008;2022-07-04T15:31:37;1.10;;;1.00;;
3333;SDS011;1679;50.392;8.008;2022-07-04T15:34:03;1.63;;;0.67;;
3333;SDS011;1679;50.392;8.008;2022-07-04T15:36:28;3.37;;;0.90;;
3333;SDS011;1679;50.392;8.008;2022-07-04T15:38:54;2.60;;;1.00;;
3333;SDS011;1679;50.392;8.008;2022-07-04T15:41:20;3.13;;;1.00;;
3333;SDS011;1679;50.392;8.008;2022-07-04T15:43:45;0.90;;;0.70;;
3333;SDS011;1679;50.392;8.008;2022-07-04T15:46:11;3.10;;;0.83;;
3333;SDS011;1679;50.392;8.008;2022-07-04T15:48:37;2.00;;;1.00;;